createdAt,value
2019-02-17T00:02:40.672Z,33.60
2019-02-17T00:07:49.615Z,33.32
2019-02-17T00:12:58.647Z,41.35
2019-02-17T00:18:07.582Z,34.09
2019-02-17T00:23:16.618Z,33.06
2019-02-17T00:28:25.556Z,30.32
2019-02-17T00:33:34.593Z,34.10
2019-02-17T00:38:43.526Z,37.37
2019-02-17T00:43:52.524Z,38.62
2019-02-17T00:49:01.483Z,41.81
2019-02-17T00:54:10.451Z,46.11
2019-02-17T00:59:19.822Z,43.10
2019-02-17T01:04:28.790Z,38.47
2019-02-17T01:09:37.812Z,38.53
2019-02-17T01:14:47.662Z,37.38
2019-02-17T01:19:56.660Z,36.76
2019-02-17T01:25:05.682Z,36.37
2019-02-17T01:30:14.683Z,36.18
2019-02-17T01:35:23.831Z,35.04
2019-02-17T01:40:32.754Z,39.47
2019-02-17T01:45:41.905Z,35.15
2019-02-17T01:50:50.863Z,36.60
2019-02-17T01:55:59.824Z,40.17
2019-02-17T02:01:08.799Z,35.02
2019-02-17T02:06:17.806Z,33.44
2019-02-17T02:11:26.786Z,37.53
2019-02-17T02:16:35.795Z,39.60
2019-02-17T02:21:44.746Z,34.90
2019-02-17T02:26:53.903Z,36.87
2019-02-17T02:32:02.865Z,37.34
2019-02-17T02:37:11.863Z,41.29
2019-02-17T02:42:20.830Z,40.55
2019-02-17T02:47:29.818Z,40.76
2019-02-17T02:52:38.755Z,40.92
2019-02-17T02:57:47.782Z,43.66
2019-02-17T03:02:56.775Z,44.35
2019-02-17T03:08:05.811Z,43.11
2019-02-17T03:13:14.719Z,41.84
2019-02-17T03:18:23.728Z,41.54
2019-02-17T03:23:32.730Z,41.91
2019-02-17T03:28:41.706Z,41.01
2019-02-17T03:33:50.844Z,41.73
2019-02-17T03:38:59.783Z,40.71
2019-02-17T03:44:08.926Z,40.44
2019-02-17T03:49:17.865Z,38.76
2019-02-17T03:54:26.891Z,38.05
2019-02-17T03:59:35.809Z,36.49
2019-02-17T04:04:44.798Z,36.11
2019-02-17T04:09:54.847Z,36.62
2019-02-17T04:14:53.820Z,34.97
2019-02-17T04:20:02.820Z,34.67
2019-02-17T04:25:11.769Z,34.34
2019-02-17T04:30:28.767Z,33.22
2019-02-17T04:35:29.236Z,33.31
2019-02-17T04:40:38.231Z,33.97
2019-02-17T04:45:47.183Z,32.38
2019-02-17T04:50:56.246Z,33.45
2019-02-17T04:56:05.167Z,33.35
2019-02-17T05:01:16.658Z,33.09
2019-02-17T05:06:15.654Z,33.46
2019-02-17T05:11:24.982Z,32.96
2019-02-17T05:16:33.922Z,31.36
2019-02-17T05:21:42.958Z,33.39
2019-02-17T05:26:51.906Z,31.79
2019-02-17T05:32:00.934Z,30.43
2019-02-17T05:37:09.868Z,30.66
2019-02-17T05:42:18.834Z,31.97
2019-02-17T05:47:27.782Z,32.02
2019-02-17T05:52:36.758Z,31.79
2019-02-17T05:57:45.707Z,31.74
2019-02-17T06:02:54.865Z,31.39
2019-02-17T06:08:03.802Z,31.00
2019-02-17T06:13:12.810Z,32.38
2019-02-17T06:18:21.770Z,31.29
2019-02-17T06:23:30.817Z,32.22
2019-02-17T06:28:39.749Z,30.07
2019-02-17T06:33:48.740Z,32.97
2019-02-17T06:38:57.682Z,32.69
2019-02-17T06:44:06.680Z,32.28
2019-02-17T06:49:15.666Z,31.02
2019-02-17T06:54:24.713Z,31.59
2019-02-17T06:59:33.639Z,30.23
2019-02-17T07:04:42.682Z,30.32
2019-02-17T07:09:51.643Z,30.84
2019-02-17T07:15:00.649Z,31.24
2019-02-17T07:20:09.867Z,31.26
2019-02-17T07:25:18.571Z,33.08
2019-02-17T07:30:27.596Z,32.42
2019-02-17T07:35:36.536Z,32.64
2019-02-17T07:40:45.498Z,31.01
2019-02-17T07:45:54.466Z,30.49
2019-02-17T07:51:03.449Z,31.13
2019-02-17T07:56:12.422Z,32.21
2019-02-17T08:01:21.357Z,31.93
2019-02-17T08:06:30.299Z,29.90
2019-02-17T08:11:39.276Z,32.29
2019-02-17T08:16:48.274Z,31.17
2019-02-17T08:21:57.218Z,31.53
2019-02-17T08:27:06.242Z,31.07
2019-02-17T08:32:15.190Z,32.08
2019-02-17T08:37:24.206Z,32.53
2019-02-17T08:42:33.171Z,31.56
2019-02-17T08:47:42.186Z,32.57
2019-02-17T08:52:51.130Z,31.16
2019-02-17T08:58:00.095Z,30.56
2019-02-17T09:03:09.067Z,30.48
2019-02-17T09:08:18.101Z,31.07
2019-02-17T09:13:27.043Z,29.09
2019-02-17T09:18:36.076Z,29.70
2019-02-17T09:23:45.106Z,28.98
2019-02-17T09:28:54.206Z,28.82
2019-02-17T09:34:03.106Z,28.31
2019-02-17T09:39:12.054Z,28.11
2019-02-17T09:44:21.023Z,28.83
2019-02-17T09:49:30.011Z,29.52
2019-02-17T09:54:38.994Z,27.96
2019-02-17T09:59:47.974Z,27.13
2019-02-17T10:04:56.930Z,27.22
2019-02-17T10:10:05.944Z,27.11
2019-02-17T10:15:14.926Z,25.74
2019-02-17T10:20:24.581Z,25.76
2019-02-17T10:25:32.378Z,25.95
2019-02-17T10:30:41.360Z,25.29
2019-02-17T10:35:50.310Z,25.54
2019-02-17T10:40:59.260Z,25.85
2019-02-17T10:46:08.219Z,25.65
2019-02-17T10:51:17.180Z,26.74
2019-02-17T10:56:26.134Z,26.23
2019-02-17T11:01:35.106Z,24.72
2019-02-17T11:06:44.043Z,23.89
2019-02-17T11:11:53.035Z,24.57
2019-02-17T11:17:01.971Z,24.81
2019-02-17T11:22:11.131Z,24.15
2019-02-17T11:27:20.060Z,23.90
2019-02-17T11:32:29.074Z,23.29
2019-02-17T11:37:38.000Z,22.66
2019-02-17T11:42:46.973Z,23.66
2019-02-17T11:47:55.951Z,23.47
2019-02-17T11:53:04.966Z,25.04
2019-02-17T11:58:13.918Z,23.36
2019-02-17T12:03:22.866Z,24.58
2019-02-17T12:08:31.872Z,24.14
2019-02-17T12:13:40.806Z,24.96
2019-02-17T12:18:49.719Z,23.10
2019-02-17T12:23:58.667Z,22.73
2019-02-17T12:29:07.682Z,23.83
2019-02-17T12:34:16.635Z,23.44
2019-02-17T12:39:25.682Z,23.18
2019-02-17T12:44:35.615Z,23.11
2019-02-17T12:49:43.106Z,22.34
2019-02-17T12:54:52.028Z,22.65
2019-02-17T13:00:00.991Z,22.08
2019-02-17T13:05:09.938Z,21.45
2019-02-17T13:10:18.930Z,21.28
2019-02-17T13:15:27.870Z,20.34
2019-02-17T13:20:36.894Z,20.23
2019-02-17T13:25:45.838Z,19.79
2019-02-17T13:30:54.818Z,20.12
2019-02-17T13:36:03.838Z,19.27
2019-02-17T13:41:12.858Z,19.53
2019-02-17T13:46:21.804Z,19.90
2019-02-17T13:51:30.954Z,19.87
2019-02-17T13:56:39.898Z,19.55
2019-02-17T14:01:48.902Z,19.49
2019-02-17T14:06:57.878Z,19.42
2019-02-17T14:12:06.889Z,19.31
2019-02-17T14:17:18.698Z,20.10
2019-02-17T14:22:16.213Z,17.54
2019-02-17T14:27:25.179Z,18.47
2019-02-17T14:32:34.182Z,17.85
2019-02-17T14:37:43.123Z,16.85
2019-02-17T14:42:52.169Z,16.39
2019-02-17T14:48:01.122Z,15.74
2019-02-17T14:53:10.102Z,15.19
2019-02-17T14:58:19.504Z,15.52
2019-02-17T15:03:27.528Z,15.09
2019-02-17T15:08:36.538Z,13.94
2019-02-17T15:13:45.523Z,14.02
2019-02-17T15:18:54.582Z,13.93
2019-02-17T15:24:03.551Z,14.02
2019-02-17T15:29:12.546Z,14.33
2019-02-17T15:34:21.514Z,14.02
2019-02-17T15:39:30.467Z,14.31
2019-02-17T15:44:39.410Z,15.00
2019-02-17T15:49:48.402Z,14.17
2019-02-17T15:54:57.351Z,13.87
2019-02-17T16:00:06.455Z,13.23
2019-02-17T16:05:15.426Z,13.93
2019-02-17T16:10:24.471Z,13.84
2019-02-17T16:15:33.401Z,13.71
2019-02-17T16:20:42.429Z,13.80
2019-02-17T16:25:51.373Z,13.78
2019-02-17T16:31:00.375Z,13.73
2019-02-17T16:36:09.347Z,13.67
2019-02-17T16:41:18.350Z,13.31
2019-02-17T16:46:27.335Z,13.84
2019-02-17T16:51:36.431Z,14.74
2019-02-17T16:56:45.424Z,13.96
2019-02-17T17:01:54.439Z,13.55
2019-02-17T17:07:03.406Z,13.49
2019-02-17T17:12:12.412Z,13.90
2019-02-17T17:17:21.386Z,12.89
2019-02-17T17:22:31.098Z,12.21
2019-02-17T17:27:41.428Z,12.22
2019-02-17T17:32:48.694Z,12.21
2019-02-17T17:37:57.714Z,12.29
2019-02-17T17:43:06.680Z,11.36
2019-02-17T17:48:15.734Z,11.79
2019-02-17T17:53:24.685Z,11.55
2019-02-17T17:58:33.681Z,11.94
2019-02-17T18:03:42.672Z,12.30
2019-02-17T18:08:51.634Z,12.99
2019-02-17T18:14:00.737Z,12.04
2019-02-17T18:19:09.623Z,10.75
2019-02-17T18:24:19.530Z,10.68
2019-02-17T18:29:28.490Z,10.67
2019-02-17T18:34:37.490Z,10.47
2019-02-17T18:39:46.427Z,10.03
2019-02-17T18:44:55.606Z,10.05
2019-02-17T18:50:04.571Z,10.30
2019-02-17T18:55:13.654Z,9.97
2019-02-17T19:00:22.575Z,10.46
2019-02-17T19:05:32.479Z,10.38
2019-02-17T19:10:40.361Z,9.95
2019-02-17T19:15:49.401Z,10.93
2019-02-17T19:20:58.359Z,11.22
2019-02-17T19:26:07.324Z,10.95
2019-02-17T19:31:16.286Z,11.81
2019-02-17T19:36:25.294Z,10.98
2019-02-17T19:41:34.257Z,11.38
2019-02-17T19:46:44.804Z,11.93
2019-02-17T19:51:51.816Z,12.15
2019-02-17T19:57:00.790Z,11.47
2019-02-17T20:02:09.730Z,11.47
2019-02-17T20:07:18.742Z,12.05
2019-02-17T20:12:27.690Z,12.03
2019-02-17T20:17:36.662Z,13.14
2019-02-17T20:22:45.607Z,13.45
2019-02-17T20:27:54.582Z,13.87
2019-02-17T20:33:03.565Z,14.53
2019-02-17T20:38:12.530Z,13.32
2019-02-17T20:43:21.478Z,14.36
2019-02-17T20:48:30.433Z,13.95
2019-02-17T20:53:39.378Z,14.59
2019-02-17T20:58:48.315Z,13.68
2019-02-17T21:03:57.262Z,13.26
2019-02-17T21:09:06.216Z,13.01
2019-02-17T21:14:15.194Z,13.31
2019-02-17T21:19:24.154Z,13.42
2019-02-17T21:24:33.110Z,13.24
2019-02-17T21:29:42.074Z,14.27
2019-02-17T21:34:52.463Z,13.52
2019-02-17T21:39:51.439Z,13.45
2019-02-17T21:45:00.411Z,13.53
2019-02-17T21:50:09.345Z,13.51
2019-02-17T21:55:18.675Z,14.27
2019-02-17T22:00:27.626Z,13.19
2019-02-17T22:05:36.615Z,13.37
2019-02-17T22:10:45.542Z,14.04
2019-02-17T22:15:54.565Z,13.82
2019-02-17T22:21:03.499Z,12.38
2019-02-17T22:26:12.522Z,12.94
2019-02-17T22:31:21.459Z,12.62
2019-02-17T22:36:30.394Z,12.59
2019-02-17T22:41:39.339Z,12.77
2019-02-17T22:46:48.291Z,12.12
2019-02-17T22:51:57.247Z,12.58
2019-02-17T22:57:06.187Z,12.37
2019-02-17T23:02:15.161Z,12.34
2019-02-17T23:07:24.102Z,12.04
2019-02-17T23:12:33.098Z,12.64
2019-02-17T23:17:42.337Z,12.73
2019-02-17T23:22:51.382Z,12.75
2019-02-17T23:28:01.485Z,12.77
2019-02-17T23:33:02.862Z,11.87
2019-02-17T23:58:26.245Z,11.83
